Time;durP1;ratioP1;P1;durP2;ratioP2;P2;SDS_P1;SDS_P2;PMS_P1;PMS_P2;Temp;Humidity;BMP_temperature;BMP_pressure;BME280_temperature;BME280_humidity;BME280_pressure;Samples;Min_cycle;Max_cycle;Signal;HPM_P1;HPM_P2
2022/06/22 00:00:54;;;;;;;;;10.67;10.00;;;;;22.76;44.99;100487.42;110298;1264;19571;-48
2022/06/22 00:03:21;;;;;;;;;9.00;9.00;;;;;22.75;44.88;100492.52;110293;1264;18841;-48
2022/06/22 00:05:49;;;;;;;;;11.00;10.67;;;;;22.72;45.01;100489.97;110253;1264;18687;-48
2022/06/22 00:08:16;;;;;;;;;10.33;10.00;;;;;22.69;45.07;100487.86;110334;1264;19536;-50
2022/06/22 00:10:44;;;;;;;;;10.67;10.67;;;;;22.66;44.96;100490.48;110274;1264;18971;-52
2022/06/22 00:13:11;;;;;;;;;13.00;11.00;;;;;22.60;45.21;100485.69;110214;1264;18880;-50
2022/06/22 00:15:38;;;;;;;;;11.00;10.33;;;;;22.45;45.44;100484.52;110248;1265;19699;-51
2022/06/22 00:18:05;;;;;;;;;11.00;11.00;;;;;22.38;45.66;100489.13;110306;1264;22705;-50
2022/06/22 00:20:33;;;;;;;;;10.00;9.00;;;;;22.37;45.76;100487.05;110271;1264;23278;-48
2022/06/22 00:23:00;;;;;;;;;10.50;10.00;;;;;22.39;45.82;100484.91;110289;1264;19541;-48
2022/06/22 00:25:27;;;;;;;;;13.33;11.00;;;;;22.37;45.81;100487.64;110298;1264;20358;-48
2022/06/22 00:27:54;;;;;;;;;11.67;11.00;;;;;22.38;45.76;100480.52;110283;1264;18800;-48
2022/06/22 00:30:22;;;;;;;;;10.00;10.00;;;;;22.38;45.86;100476.46;110252;1265;19530;-51
2022/06/22 00:32:49;;;;;;;;;10.00;10.00;;;;;22.38;45.72;100472.27;110276;1264;18927;-52
2022/06/22 00:35:16;;;;;;;;;10.33;9.33;;;;;22.36;45.67;100472.30;110266;1265;19056;-48
2022/06/22 00:37:43;;;;;;;;;13.50;10.50;;;;;22.32;45.80;100471.45;110288;1264;19641;-48
2022/06/22 00:40:11;;;;;;;;;10.00;9.33;;;;;22.34;45.99;100477.64;110291;1264;22038;-51
2022/06/22 00:42:38;;;;;;;;;13.00;11.67;;;;;22.34;45.87;100479.36;110282;1264;18906;-48
2022/06/22 00:45:05;;;;;;;;;13.00;10.33;;;;;22.33;45.85;100477.27;110264;1264;22939;-48
2022/06/22 00:47:32;;;;;;;;;14.33;13.33;;;;;22.32;46.00;100472.66;110135;1265;18864;-48
2022/06/22 00:50:00;;;;;;;;;11.00;10.33;;;;;22.33;45.86;100468.48;110224;1264;18972;-48
2022/06/22 00:52:27;;;;;;;;;11.00;10.50;;;;;22.36;45.93;100466.29;110278;1264;22812;-48
2022/06/22 00:54:54;;;;;;;;;11.67;11.00;;;;;22.38;45.73;100465.67;110120;1264;18748;-48
2022/06/22 00:57:22;;;;;;;;;9.67;9.67;;;;;22.39;45.91;100465.94;110272;1264;18824;-49
2022/06/22 00:59:49;;;;;;;;;11.00;10.00;;;;;22.39;45.85;100470.09;110277;1264;19478;-48
2022/06/22 01:02:16;;;;;;;;;13.00;10.67;;;;;22.37;45.90;100468.06;110263;1264;18401;-48
2022/06/22 01:04:43;;;;;;;;;11.00;10.00;;;;;22.36;45.91;100468.81;110287;1264;18731;-55
2022/06/22 01:07:11;;;;;;;;;13.00;10.00;;;;;22.43;45.95;100470.02;110298;1264;19741;-50
2022/06/22 01:09:38;;;;;;;;;11.67;9.00;;;;;22.49;45.62;100463.77;110269;1264;19662;-47
2022/06/22 01:12:18;;;;;;;;;11.00;10.33;;;;;22.53;45.73;100465.61;110241;1264;19263;-48
2022/06/22 01:14:45;;;;;;;;;10.33;10.33;;;;;22.56;45.60;100469.64;110230;1264;22794;-48
2022/06/22 01:17:12;;;;;;;;;12.00;11.00;;;;;22.57;45.64;100481.88;110252;1265;18976;-50
2022/06/22 01:19:40;;;;;;;;;11.00;11.00;;;;;22.57;45.55;100483.47;110320;1264;21980;-48
2022/06/22 01:22:07;;;;;;;;;13.00;11.00;;;;;22.56;45.49;100490.14;110280;1264;19578;-48
2022/06/22 01:24:34;;;;;;;;;11.00;11.00;;;;;22.55;45.60;100484.12;110245;1265;19844;-54
2022/06/22 01:27:01;;;;;;;;;11.00;11.00;;;;;22.42;45.87;100485.55;110248;1265;18757;-52
2022/06/22 01:29:29;;;;;;;;;10.00;10.00;;;;;22.37;45.93;100480.27;110293;1264;19625;-48
2022/06/22 01:31:56;;;;;;;;;10.33;10.33;;;;;22.32;46.25;100483.08;110253;1264;18888;-48
2022/06/22 01:34:24;;;;;;;;;11.67;11.00;;;;;22.38;46.01;100480.79;110318;1264;18830;-48
2022/06/22 01:36:51;;;;;;;;;13.33;13.00;;;;;22.45;45.99;100481.29;110278;1264;19533;-49
2022/06/22 01:39:18;;;;;;;;;13.50;12.00;;;;;22.48;45.88;100486.12;110260;1264;18721;-48
2022/06/22 01:41:45;;;;;;;;;9.00;9.00;;;;;22.51;45.94;100483.41;110260;1265;18841;-48
2022/06/22 01:44:13;;;;;;;;;13.00;10.00;;;;;22.51;45.82;100484.83;110293;1264;19627;-48
2022/06/22 01:46:40;;;;;;;;;14.00;11.00;;;;;22.49;45.73;100484.40;110343;1264;20295;-49
2022/06/22 01:49:07;;;;;;;;;11.00;10.00;;;;;22.47;45.92;100481.31;110234;1264;18751;-48
2022/06/22 01:51:35;;;;;;;;;9.50;9.50;;;;;22.45;45.86;100480.48;110243;1264;19365;-48
2022/06/22 01:54:02;;;;;;;;;13.00;11.00;;;;;22.32;46.23;100482.08;110266;1265;18861;-48
2022/06/22 01:56:30;;;;;;;;;12.67;12.67;;;;;22.25;46.25;100481.00;110148;1264;23320;-48
2022/06/22 01:58:57;;;;;;;;;13.00;10.00;;;;;22.21;46.41;100478.43;110276;1264;19624;-49
2022/06/22 02:01:24;;;;;;;;;13.00;11.00;;;;;22.18;46.53;100481.08;110306;1263;19098;-49
2022/06/22 02:03:51;;;;;;;;;12.00;10.50;;;;;22.18;46.49;100488.69;110293;1264;18800;-49
2022/06/22 02:09:04;;;;;;;;;9.67;9.00;;;;;22.12;46.68;100489.00;110255;1264;19093;-47
2022/06/22 02:11:31;;;;;;;;;14.00;11.50;;;;;22.08;46.66;100486.23;110280;1264;18512;-49
2022/06/22 02:13:58;;;;;;;;;13.67;11.00;;;;;22.08;46.67;100485.64;110283;1264;19601;-48
2022/06/22 02:16:26;;;;;;;;;13.00;11.00;;;;;22.04;46.83;100489.76;110294;1264;18980;-49
2022/06/22 02:18:53;;;;;;;;;12.50;11.00;;;;;22.05;46.67;100492.23;110261;1264;18852;-53
2022/06/22 02:21:20;;;;;;;;;13.00;11.00;;;;;22.10;46.49;100502.22;110295;1264;19778;-49
2022/06/22 02:23:48;;;;;;;;;12.67;12.67;;;;;22.25;46.45;100512.77;110234;1265;18690;-49
2022/06/22 02:26:15;;;;;;;;;13.67;10.33;;;;;22.32;46.24;100514.01;110262;1264;21096;-48
2022/06/22 02:28:42;;;;;;;;;10.67;10.00;;;;;22.36;46.15;100514.25;110281;1264;19469;-48
2022/06/22 02:31:09;;;;;;;;;10.67;10.33;;;;;22.40;46.03;100508.62;110241;1264;22809;-48
2022/06/22 02:33:37;;;;;;;;;11.33;11.00;;;;;22.42;45.96;100506.39;110282;1264;18763;-48
2022/06/22 02:36:04;;;;;;;;;11.00;11.00;;;;;22.45;45.82;100511.33;110301;1264;19476;-48
2022/06/22 02:38:31;;;;;;;;;10.00;10.00;;;;;22.44;45.75;100515.48;110273;1265;22274;-48
2022/06/22 02:46:29;;;;;;;;;12.50;10.50;;;;;22.41;45.75;100516.36;110321;1264;18707;-51
2022/06/22 02:48:56;;;;;;;;;11.00;10.00;;;;;22.42;45.82;100512.77;110279;1264;18879;-53
2022/06/22 02:51:24;;;;;;;;;14.00;14.00;;;;;22.42;45.84;100508.23;110261;1264;19632;-50
2022/06/22 02:53:51;;;;;;;;;12.33;11.00;;;;;22.42;45.70;100511.88;110232;1263;22488;-49
2022/06/22 02:56:18;;;;;;;;;11.00;10.50;;;;;22.41;45.69;100520.83;110255;1264;18756;-49
2022/06/22 02:58:46;;;;;;;;;11.00;10.67;;;;;22.41;45.83;100527.96;110269;1264;20024;-51
2022/06/22 03:01:13;;;;;;;;;10.00;10.00;;;;;22.40;45.77;100533.74;110294;1264;18885;-49
2022/06/22 03:03:41;;;;;;;;;13.33;12.67;;;;;22.38;45.74;100534.11;110301;1264;20173;-48
2022/06/22 03:06:09;;;;;;;;;11.00;11.00;;;;;22.38;45.80;100532.27;110279;1264;19368;-48
2022/06/22 03:08:36;;;;;;;;;10.67;10.00;;;;;22.38;45.73;100527.35;110310;1264;22008;-48
2022/06/22 03:11:03;;;;;;;;;12.67;12.67;;;;;22.38;45.60;100522.48;110264;1264;23879;-48
2022/06/22 03:13:31;;;;;;;;;12.00;10.33;;;;;22.38;45.82;100516.67;110310;1264;19691;-48
2022/06/22 03:15:58;;;;;;;;;11.00;10.67;;;;;22.39;45.75;100515.21;110279;1264;18898;-48
2022/06/22 03:18:26;;;;;;;;;13.00;13.00;;;;;22.38;45.78;100511.52;110261;1264;18773;-48
2022/06/22 03:20:53;;;;;;;;;11.00;11.00;;;;;22.39;45.69;100511.21;110263;1264;19637;-49
2022/06/22 03:23:21;;;;;;;;;13.00;11.00;;;;;22.40;45.66;100514.25;110264;1264;18799;-50
2022/06/22 03:25:48;;;;;;;;;14.33;14.00;;;;;22.40;45.64;100510.64;110243;1264;18752;-48
2022/06/22 03:28:15;;;;;;;;;17.00;15.00;;;;;22.38;45.67;100511.97;110259;1264;19580;-48
2022/06/22 03:30:42;;;;;;;;;13.67;13.00;;;;;22.38;45.78;100512.09;110135;1265;18890;-47
2022/06/22 03:33:10;;;;;;;;;13.33;13.00;;;;;22.38;45.89;100510.50;110225;1264;22418;-50
2022/06/22 03:35:37;;;;;;;;;13.67;13.67;;;;;22.39;45.81;100515.05;110298;1264;23215;-49
2022/06/22 03:38:04;;;;;;;;;13.00;13.00;;;;;22.41;45.71;100509.92;110262;1264;20169;-48
2022/06/22 03:40:32;;;;;;;;;14.67;14.00;;;;;22.41;45.84;100512.60;110312;1264;19791;-49
2022/06/22 03:42:59;;;;;;;;;15.00;13.00;;;;;22.42;45.75;100517.27;110272;1264;19598;-48
2022/06/22 03:45:26;;;;;;;;;11.00;11.00;;;;;22.44;45.84;100514.92;110281;1264;19918;-48
2022/06/22 03:47:53;;;;;;;;;13.00;11.00;;;;;22.44;45.90;100515.60;110278;1264;19067;-50
2022/06/22 03:50:21;;;;;;;;;13.50;13.00;;;;;22.44;46.01;100526.31;110229;1264;24317;-50
2022/06/22 03:52:48;;;;;;;;;14.00;13.50;;;;;22.43;45.85;100523.74;110227;1264;19598;-49
2022/06/22 03:55:15;;;;;;;;;14.00;14.00;;;;;22.42;45.97;100523.11;110249;1264;18791;-48
2022/06/22 03:57:44;;;;;;;;;11.00;11.00;;;;;22.42;46.04;100524.61;110113;1263;19495;-48
2022/06/22 04:00:11;;;;;;;;;10.00;10.00;;;;;22.43;46.02;100531.23;111477;1264;18819;-48
2022/06/22 04:02:38;;;;;;;;;13.67;11.00;;;;;22.44;46.02;100531.40;110252;1265;22925;-48
2022/06/22 04:05:06;;;;;;;;;10.00;10.00;;;;;22.45;46.03;100531.45;110263;1264;19482;-48
2022/06/22 04:07:33;;;;;;;;;9.33;9.00;;;;;22.46;46.28;100533.22;110301;1264;19125;-48
2022/06/22 04:10:00;;;;;;;;;11.00;10.00;;;;;22.45;46.13;100531.79;110300;1264;19659;-49
2022/06/22 04:12:27;;;;;;;;;10.67;9.00;;;;;22.47;46.06;100531.98;110258;1264;22850;-50
2022/06/22 04:14:55;;;;;;;;;18.00;11.00;;;;;22.48;46.25;100531.95;110246;1264;18862;-50
2022/06/22 04:17:22;;;;;;;;;11.00;11.00;;;;;22.48;46.23;100530.94;110278;1265;18905;-50
2022/06/22 04:19:49;;;;;;;;;14.00;13.33;;;;;22.47;46.23;100533.37;110287;1264;19511;-49
2022/06/22 04:22:17;;;;;;;;;11.00;10.00;;;;;22.43;46.41;100536.77;110254;1264;18855;-49
2022/06/22 04:24:44;;;;;;;;;10.67;10.67;;;;;22.41;46.33;100543.04;110269;1264;22829;-50
2022/06/22 04:27:11;;;;;;;;;11.00;9.67;;;;;22.41;46.52;100549.97;110268;1264;22973;-48
2022/06/22 04:29:38;;;;;;;;;10.50;10.00;;;;;22.40;46.57;100552.61;110237;1264;18922;-49
2022/06/22 04:32:06;;;;;;;;;10.00;10.00;;;;;22.43;46.48;100554.63;110236;1265;19092;-54
2022/06/22 04:34:33;;;;;;;;;13.00;11.00;;;;;22.58;46.49;100553.31;110266;1264;19738;-49
2022/06/22 04:37:00;;;;;;;;;9.67;9.67;;;;;22.78;46.25;100556.63;110240;1265;18899;-48
2022/06/22 04:39:28;;;;;;;;;13.00;11.00;;;;;22.92;46.02;100561.77;110264;1265;18693;-48
2022/06/22 04:41:55;;;;;;;;;10.00;10.00;;;;;22.96;45.90;100557.41;110198;1264;19613;-49
2022/06/22 04:44:22;;;;;;;;;11.00;11.00;;;;;22.99;45.77;100557.26;110210;1264;23750;-48
2022/06/22 04:46:49;;;;;;;;;11.00;10.33;;;;;22.99;45.86;100558.18;110245;1263;18727;-47
2022/06/22 04:49:17;;;;;;;;;9.00;7.67;;;;;22.89;46.53;100552.62;110231;1264;20698;-49
2022/06/22 04:51:44;;;;;;;;;10.33;9.00;;;;;22.85;47.52;100543.85;110224;1263;18716;-47
2022/06/22 04:54:11;;;;;;;;;9.33;9.33;;;;;22.98;47.87;100544.42;110237;1264;19025;-50
2022/06/22 04:56:39;;;;;;;;;9.00;9.00;;;;;23.07;48.11;100544.14;110203;1264;19599;-45
2022/06/22 04:59:07;;;;;;;;;10.00;9.00;;;;;23.15;48.17;100544.58;110187;1264;18515;-50
2022/06/22 05:01:35;;;;;;;;;10.33;10.00;;;;;23.23;48.10;100551.04;110248;1264;18825;-49
2022/06/22 05:04:02;;;;;;;;;7.00;7.00;;;;;23.26;48.07;100552.83;110243;1264;19695;-49
2022/06/22 05:06:29;;;;;;;;;10.00;9.67;;;;;23.30;47.89;100553.31;110272;1264;18819;-49
2022/06/22 05:08:56;;;;;;;;;10.00;9.00;;;;;23.30;47.85;100554.91;110238;1263;21888;-49
2022/06/22 05:11:24;;;;;;;;;10.00;9.00;;;;;23.30;47.64;100557.27;110244;1264;19930;-47
2022/06/22 05:13:51;;;;;;;;;16.67;13.33;;;;;23.27;47.81;100560.08;110264;1264;22862;-48
2022/06/22 05:16:19;;;;;;;;;11.33;11.00;;;;;23.32;47.79;100549.96;110276;1265;21903;-50
2022/06/22 05:18:46;;;;;;;;;9.00;8.33;;;;;23.38;47.89;100550.86;110237;1265;19472;-50
2022/06/22 05:21:13;;;;;;;;;13.00;11.00;;;;;23.42;47.77;100553.53;110266;1264;18727;-50
2022/06/22 05:23:41;;;;;;;;;9.00;9.00;;;;;23.44;47.77;100556.67;110038;1264;18799;-50
2022/06/22 05:26:08;;;;;;;;;49.33;41.00;;;;;23.44;47.68;100548.73;110038;1264;22407;-50
2022/06/22 05:28:35;;;;;;;;;60.00;47.00;;;;;23.43;47.71;100542.91;110185;1264;18466;-50
2022/06/22 05:31:02;;;;;;;;;45.00;40.00;;;;;23.43;47.45;100544.42;110239;1265;18847;-50
2022/06/22 05:33:30;;;;;;;;;92.00;66.33;;;;;23.46;47.36;100544.81;110206;1264;19478;-50
2022/06/22 05:35:58;;;;;;;;;77.33;57.67;;;;;23.46;47.22;100547.38;110184;1264;21039;-52
2022/06/22 05:38:25;;;;;;;;;61.00;45.00;;;;;23.44;47.30;100550.19;110257;1264;19001;-48
2022/06/22 05:40:53;;;;;;;;;45.00;37.00;;;;;23.43;47.27;100548.76;110089;1264;19601;-48
2022/06/22 05:43:20;;;;;;;;;43.67;38.00;;;;;23.41;47.09;100551.02;110056;1264;232518;-52
2022/06/22 05:45:48;;;;;;;;;31.67;30.67;;;;;23.39;47.39;100559.16;110189;1264;22137;-48
2022/06/22 05:48:15;;;;;;;;;28.00;27.00;;;;;23.28;47.44;100566.30;110193;1264;19592;-48
2022/06/22 05:50:43;;;;;;;;;22.00;19.00;;;;;23.01;47.74;100567.20;110225;1265;18854;-49
2022/06/22 05:53:11;;;;;;;;;23.00;18.67;;;;;22.92;47.85;100564.60;110259;1264;19784;-53
2022/06/22 05:55:39;;;;;;;;;17.67;16.67;;;;;22.90;47.98;100562.77;110279;1264;19793;-53
2022/06/22 05:58:07;;;;;;;;;19.00;15.33;;;;;22.83;48.01;100563.22;110244;1265;19393;-54
2022/06/22 06:00:35;;;;;;;;;18.33;18.33;;;;;22.92;48.07;100563.80;110153;1264;19060;-47
2022/06/22 06:03:03;;;;;;;;;15.67;15.00;;;;;23.05;47.86;100562.44;110242;1265;19532;-48
2022/06/22 06:05:30;;;;;;;;;16.33;15.00;;;;;23.11;47.80;100560.36;110236;1264;22393;-49
2022/06/22 06:07:58;;;;;;;;;13.00;13.00;;;;;23.15;47.85;100561.02;110259;1264;18969;-48
2022/06/22 06:10:25;;;;;;;;;15.00;14.33;;;;;23.18;47.93;100568.11;110275;1265;19609;-49
2022/06/22 06:12:52;;;;;;;;;15.00;14.00;;;;;23.21;47.96;100575.34;110253;1264;18807;-52
2022/06/22 06:15:19;;;;;;;;;13.33;13.00;;;;;23.24;47.82;100574.30;110209;1265;18844;-48
2022/06/22 06:17:47;;;;;;;;;15.67;13.67;;;;;23.27;47.83;100574.75;110246;1262;19756;-51
2022/06/22 06:20:14;;;;;;;;;14.50;11.00;;;;;23.27;47.86;100576.64;110252;1264;22220;-49
2022/06/22 06:22:41;;;;;;;;;14.67;14.00;;;;;23.28;48.20;100579.80;110308;1264;18902;-50
2022/06/22 06:27:53;;;;;;;;;13.67;13.67;;;;;23.27;48.18;100584.77;110194;1264;18763;-50
2022/06/22 06:30:21;;;;;;;;;11.00;11.00;;;;;23.30;48.31;100579.58;110262;1264;18991;-50
2022/06/22 06:32:48;;;;;;;;;14.33;13.67;;;;;23.36;48.47;100579.25;110277;1264;19651;-50
2022/06/22 06:35:16;;;;;;;;;13.33;11.33;;;;;23.38;48.85;100575.56;110234;1265;18720;-50
2022/06/22 06:37:44;;;;;;;;;11.00;10.00;;;;;23.54;49.47;100575.13;110281;1264;18743;-50
2022/06/22 06:40:12;;;;;;;;;14.33;12.00;;;;;23.65;49.38;100570.44;110101;1263;19587;-49
2022/06/22 06:42:39;;;;;;;;;9.67;9.00;;;;;23.62;49.19;100571.66;110268;1264;18704;-51
2022/06/22 06:45:06;;;;;;;;;10.00;10.00;;;;;23.53;48.92;100571.92;110245;1264;21262;-50
2022/06/22 06:47:34;;;;;;;;;11.00;10.67;;;;;23.51;49.03;100576.54;110245;1265;21516;-48
2022/06/22 06:50:01;;;;;;;;;9.33;9.33;;;;;23.49;48.80;100573.20;110232;1264;19107;-50
2022/06/22 06:52:28;;;;;;;;;10.33;9.67;;;;;23.48;48.54;100571.48;110215;1264;23078;-49
2022/06/22 06:54:55;;;;;;;;;10.00;10.00;;;;;23.52;48.53;100572.96;110234;1264;21077;-49
2022/06/22 06:57:23;;;;;;;;;10.00;10.00;;;;;23.57;48.59;100574.22;110274;1265;22066;-49
2022/06/22 06:59:50;;;;;;;;;15.00;13.00;;;;;23.62;48.34;100570.23;110214;1264;18971;-49
2022/06/22 07:02:17;;;;;;;;;12.67;11.33;;;;;23.68;48.22;100573.08;110238;1264;19534;-48
2022/06/22 07:04:45;;;;;;;;;11.00;10.67;;;;;23.74;48.26;100574.00;110274;1264;18678;-50
2022/06/22 07:07:12;;;;;;;;;14.00;11.50;;;;;23.75;48.43;100572.36;110208;1263;18818;-50
2022/06/22 07:09:39;;;;;;;;;11.00;11.00;;;;;23.76;48.44;100574.80;110184;1265;22727;-49
2022/06/22 07:12:07;;;;;;;;;13.33;11.33;;;;;23.79;48.57;100581.91;110190;1262;18690;-49
2022/06/22 07:14:34;;;;;;;;;12.00;10.67;;;;;23.78;48.43;100580.73;110252;1264;18747;-50
2022/06/22 07:17:01;;;;;;;;;12.00;11.00;;;;;23.75;48.41;100582.09;110234;1264;19780;-49
2022/06/22 07:19:28;;;;;;;;;11.00;10.00;;;;;23.81;48.27;100579.52;110258;1264;18688;-49
2022/06/22 07:21:56;;;;;;;;;20.67;18.67;;;;;23.88;48.14;100579.19;110211;1264;18925;-50
2022/06/22 07:24:23;;;;;;;;;16.00;14.67;;;;;23.96;48.06;100580.06;110191;1264;19549;-50
2022/06/22 07:26:50;;;;;;;;;15.33;15.00;;;;;23.98;47.91;100579.71;110252;1264;19030;-49
2022/06/22 07:29:17;;;;;;;;;15.33;15.00;;;;;24.02;47.86;100583.26;110154;1264;18914;-49
2022/06/22 07:31:45;;;;;;;;;11.50;11.50;;;;;24.02;47.71;100582.13;110064;1264;20917;-47
2022/06/22 07:34:12;;;;;;;;;14.00;14.00;;;;;24.01;47.48;100580.39;109967;1264;19478;-53
2022/06/22 07:36:39;;;;;;;;;12.00;12.00;;;;;24.01;47.46;100579.33;110028;1264;18896;-49
2022/06/22 07:39:07;;;;;;;;;11.33;11.33;;;;;24.02;47.16;100583.10;110234;1264;22643;-50
2022/06/22 07:41:34;;;;;;;;;10.67;10.00;;;;;24.03;46.71;100585.09;110275;1264;18692;-50
2022/06/22 07:44:01;;;;;;;;;10.33;8.67;;;;;24.03;46.69;100584.54;110264;1263;18913;-51
2022/06/22 07:46:29;;;;;;;;;10.00;10.00;;;;;24.04;46.10;100579.31;110306;1264;19450;-52
2022/06/22 07:48:56;;;;;;;;;10.67;10.00;;;;;24.04;45.56;100577.16;110279;1265;22229;-50
2022/06/22 07:51:23;;;;;;;;;11.33;10.67;;;;;24.04;45.24;100577.13;110195;1264;22258;-49
2022/06/22 07:53:50;;;;;;;;;7.00;6.50;;;;;23.98;45.25;100577.52;110188;1264;19700;-50
2022/06/22 07:56:18;;;;;;;;;7.67;7.67;;;;;23.99;45.03;100575.58;110195;1264;18894;-50
2022/06/22 07:58:45;;;;;;;;;10.33;10.00;;;;;24.03;44.77;100574.81;110264;1265;18874;-48
2022/06/22 08:01:13;;;;;;;;;7.00;7.00;;;;;24.06;44.46;100575.79;110113;1264;19443;-48
2022/06/22 08:03:42;;;;;;;;;11.00;10.00;;;;;24.14;44.14;100570.86;110083;1264;18858;-49
2022/06/22 08:06:09;;;;;;;;;9.00;9.00;;;;;24.12;44.15;100574.25;110042;1265;18979;-48
2022/06/22 08:08:37;;;;;;;;;7.00;7.00;;;;;24.16;43.92;100571.88;110201;1264;19694;-50
2022/06/22 08:11:06;;;;;;;;;7.00;7.00;;;;;24.19;44.14;100575.85;110262;1265;20318;-48
2022/06/22 08:13:34;;;;;;;;;7.33;7.00;;;;;24.12;44.09;100572.27;110324;1264;19018;-49
2022/06/22 08:16:01;;;;;;;;;7.33;7.00;;;;;24.09;43.71;100569.16;110260;1264;23166;-50
2022/06/22 08:18:28;;;;;;;;;7.00;7.00;;;;;24.11;43.75;100568.30;110245;1264;18842;-50
2022/06/22 08:20:57;;;;;;;;;7.00;7.00;;;;;24.12;43.62;100570.46;110240;1264;22732;-48
2022/06/22 08:23:24;;;;;;;;;8.00;7.50;;;;;24.15;43.64;100571.62;110244;1265;19608;-49
2022/06/22 08:25:51;;;;;;;;;7.33;6.00;;;;;24.17;43.98;100570.74;110306;1264;19008;-49
2022/06/22 08:28:19;;;;;;;;;8.00;8.00;;;;;24.11;43.81;100570.42;110261;1264;21216;-49
2022/06/22 08:30:46;;;;;;;;;8.00;8.00;;;;;24.08;44.12;100570.99;110266;1264;20214;-50
2022/06/22 08:33:13;;;;;;;;;8.00;7.00;;;;;24.10;44.23;100570.91;110263;1264;19125;-50
2022/06/22 08:35:41;;;;;;;;;7.00;7.00;;;;;24.10;44.27;100571.98;110239;1264;19632;-50
2022/06/22 08:38:08;;;;;;;;;7.67;7.00;;;;;24.11;43.44;100572.57;110249;1264;19653;-49
2022/06/22 08:40:35;;;;;;;;;9.33;7.00;;;;;24.17;42.79;100572.94;110304;1264;18939;-50
2022/06/22 08:43:03;;;;;;;;;6.67;6.67;;;;;24.15;42.69;100577.52;110240;1264;19519;-50
2022/06/22 08:45:30;;;;;;;;;6.00;6.00;;;;;24.17;42.93;100575.75;110251;1264;19542;-56
2022/06/22 08:47:57;;;;;;;;;8.00;8.00;;;;;24.27;43.45;100580.98;110219;1264;18447;-50
2022/06/22 08:50:25;;;;;;;;;7.00;7.00;;;;;24.35;44.04;100583.10;110239;1265;18941;-51
2022/06/22 08:52:52;;;;;;;;;9.67;9.67;;;;;24.36;44.26;100586.85;110313;1265;19762;-51
2022/06/22 08:55:19;;;;;;;;;10.00;8.00;;;;;24.27;44.43;100585.70;110320;1265;20729;-49
2022/06/22 08:57:47;;;;;;;;;8.00;8.00;;;;;24.34;44.31;100578.80;110262;1264;18911;-49
2022/06/22 09:00:14;;;;;;;;;8.00;8.00;;;;;24.35;44.38;100583.23;110246;1264;19957;-49
2022/06/22 09:02:41;;;;;;;;;8.67;8.00;;;;;24.21;44.47;100578.84;110240;1263;18503;-50
2022/06/22 09:05:09;;;;;;;;;10.00;8.00;;;;;24.14;44.37;100584.56;110248;1264;18717;-53
2022/06/22 09:07:37;;;;;;;;;10.00;8.00;;;;;24.14;43.59;100583.80;110246;1264;19576;-48
2022/06/22 09:10:04;;;;;;;;;8.00;8.00;;;;;24.21;42.52;100576.52;110236;1264;19022;-47
2022/06/22 09:12:31;;;;;;;;;7.00;7.00;;;;;24.36;42.07;100580.41;110200;1262;18798;-48
2022/06/22 09:14:58;;;;;;;;;7.33;7.00;;;;;24.39;42.51;100580.80;110220;1264;22832;-50
2022/06/22 09:17:26;;;;;;;;;10.00;9.67;;;;;24.44;42.91;100578.08;110251;1264;18621;-48
2022/06/22 09:19:54;;;;;;;;;9.33;8.00;;;;;24.53;43.02;100575.69;110250;1264;22581;-53
2022/06/22 09:22:23;;;;;;;;;9.00;8.00;;;;;24.59;43.46;100574.94;110249;1264;21353;-46
2022/06/22 09:24:50;;;;;;;;;38.33;32.67;;;;;24.57;43.84;100578.10;110276;1264;18603;-52
2022/06/22 09:27:17;;;;;;;;;20.33;17.00;;;;;24.60;44.53;100575.14;110240;1264;20394;-53
2022/06/22 09:29:44;;;;;;;;;16.33;15.67;;;;;24.64;44.54;100574.02;110234;1265;19467;-52
2022/06/22 09:32:12;;;;;;;;;15.00;13.33;;;;;24.74;44.36;100575.44;110187;1265;18743;-48
2022/06/22 09:34:40;;;;;;;;;12.50;12.50;;;;;24.66;44.30;100571.96;110147;1265;18958;-50
2022/06/22 09:37:07;;;;;;;;;12.67;11.00;;;;;24.59;44.17;100569.41;110190;1263;19654;-48
2022/06/22 09:39:34;;;;;;;;;12.00;11.00;;;;;24.59;43.85;100564.81;110207;1263;18923;-51
2022/06/22 09:42:02;;;;;;;;;12.67;11.67;;;;;24.62;43.78;100564.65;110162;1264;19575;-49
2022/06/22 09:44:29;;;;;;;;;11.00;11.00;;;;;24.62;43.85;100566.98;110196;1264;22029;-49
2022/06/22 09:46:57;;;;;;;;;12.00;11.67;;;;;24.62;44.15;100565.72;110201;1264;19115;-49
2022/06/22 09:49:24;;;;;;;;;12.00;12.00;;;;;24.64;44.32;100569.05;110142;1264;22077;-47
2022/06/22 09:51:51;;;;;;;;;13.50;11.50;;;;;24.60;44.37;100564.23;110262;1265;19564;-49
2022/06/22 09:57:00;;;;;;;;;8.67;8.67;;;;;24.58;44.09;100560.27;110244;1264;23047;-50
2022/06/22 09:59:27;;;;;;;;;12.33;11.33;;;;;24.64;43.87;100558.55;110244;1264;19641;-48
2022/06/22 10:01:54;;;;;;;;;11.00;10.67;;;;;24.56;43.91;100558.58;110004;1265;18443;-47
2022/06/22 10:04:21;;;;;;;;;10.50;9.00;;;;;24.52;43.64;100562.52;110144;1264;19663;-49
2022/06/22 10:06:49;;;;;;;;;8.00;8.00;;;;;24.64;43.49;100563.41;110170;1264;19790;-50
2022/06/22 10:09:16;;;;;;;;;7.33;7.33;;;;;24.66;43.29;100565.09;110257;1263;19009;-50
2022/06/22 10:11:44;;;;;;;;;10.00;9.50;;;;;24.58;43.09;100560.94;110261;1264;18705;-48
2022/06/22 10:14:11;;;;;;;;;8.67;8.67;;;;;24.65;43.05;100561.88;110281;1264;20921;-50
2022/06/22 10:16:38;;;;;;;;;8.67;8.33;;;;;24.69;42.74;100561.44;110262;1264;18780;-52
2022/06/22 10:19:06;;;;;;;;;10.00;10.00;;;;;24.62;42.78;100566.30;110234;1264;21673;-50
2022/06/22 10:21:35;;;;;;;;;8.00;8.00;;;;;24.56;43.00;100558.15;110212;1264;19461;-49
2022/06/22 10:24:03;;;;;;;;;7.67;7.67;;;;;24.67;42.55;100550.51;110273;1264;18745;-49
2022/06/22 10:26:30;;;;;;;;;10.50;10.50;;;;;24.71;42.99;100550.77;110274;1264;20302;-50
2022/06/22 10:28:57;;;;;;;;;7.67;7.67;;;;;24.65;42.83;100554.89;110296;1264;22756;-53
2022/06/22 10:31:24;;;;;;;;;8.00;8.00;;;;;24.61;42.55;100555.48;110274;1264;18713;-48
2022/06/22 10:33:52;;;;;;;;;7.50;7.00;;;;;24.66;42.53;100552.79;110211;1265;20437;-48
2022/06/22 10:36:19;;;;;;;;;8.00;8.00;;;;;24.64;42.34;100545.87;110275;1264;19647;-49
2022/06/22 10:38:46;;;;;;;;;9.67;8.67;;;;;24.64;42.23;100536.41;110297;1264;18388;-49
2022/06/22 10:46:43;;;;;;;;;7.00;7.00;;;;;24.71;41.51;100541.53;110274;1264;18785;-49
2022/06/22 10:49:11;;;;;;;;;7.00;7.00;;;;;24.70;41.48;100542.58;110233;1265;22221;-50
2022/06/22 10:51:40;;;;;;;;;8.67;8.33;;;;;24.64;41.80;100538.99;110306;1264;21721;-50
2022/06/22 10:54:08;;;;;;;;;7.33;6.67;;;;;24.52;41.64;100533.27;110300;1264;18488;-51
2022/06/22 10:56:35;;;;;;;;;6.67;6.33;;;;;24.50;41.41;100531.58;110254;1263;18785;-49
2022/06/22 10:59:03;;;;;;;;;7.67;7.33;;;;;24.42;41.01;100532.11;110287;1265;20280;-49
2022/06/22 11:01:30;;;;;;;;;11.33;11.33;;;;;24.37;40.59;100534.95;110317;1264;18757;-51
2022/06/22 11:03:58;;;;;;;;;7.33;7.00;;;;;24.35;40.35;100536.20;110305;1264;19002;-49
2022/06/22 11:06:25;;;;;;;;;7.50;7.00;;;;;24.40;40.33;100539.35;110250;1264;21278;-49
2022/06/22 11:08:53;;;;;;;;;7.00;6.00;;;;;24.49;39.93;100541.39;110165;1264;23867;-50
2022/06/22 11:11:20;;;;;;;;;10.00;7.00;;;;;24.54;39.74;100544.52;110252;1264;23060;-51
2022/06/22 11:13:48;;;;;;;;;6.00;6.00;;;;;24.49;39.96;100547.05;110251;1264;19726;-51
2022/06/22 11:16:15;;;;;;;;;7.00;7.00;;;;;24.45;39.79;100551.08;110271;1265;18907;-48
2022/06/22 11:18:42;;;;;;;;;7.00;6.67;;;;;24.43;39.67;100548.17;110282;1264;18740;-49
2022/06/22 11:21:11;;;;;;;;;6.00;6.00;;;;;24.42;39.83;100551.15;110303;1263;19665;-49
2022/06/22 11:23:39;;;;;;;;;6.00;6.00;;;;;24.33;39.60;100549.79;110241;1263;18463;-54
2022/06/22 11:31:36;;;;;;;;;7.00;6.00;;;;;24.36;39.74;100556.36;110291;1264;18460;-49